Time;durP1;ratioP1;P1;durP2;ratioP2;P2;SDS_P1;SDS_P2;PMS_P1;PMS_P2;Temp;Humidity;BMP_temperature;BMP_pressure;BME280_temperature;BME280_humidity;BME280_pressure;Samples;Min_cycle;Max_cycle;Signal;HPM_P1;HPM_P2
2022/03/28 00:00:03;;;;;;;13.98;9.32;;;8.70;99.90;;;;;;5094826;28;20178;-54
2022/03/28 00:02:29;;;;;;;14.77;9.80;;;8.70;99.90;;;;;;5094846;28;20314;-56
2022/03/28 00:04:54;;;;;;;13.45;9.63;;;8.60;99.90;;;;;;5094884;28;20181;-53
2022/03/28 00:07:20;;;;;;;14.15;9.40;;;8.40;99.90;;;;;;5094602;28;20260;-55
2022/03/28 00:09:46;;;;;;;17.80;9.93;;;8.50;99.90;;;;;;5094711;28;20181;-53
2022/03/28 00:12:11;;;;;;;18.00;9.57;;;8.60;99.90;;;;;;5094565;28;20195;-53
2022/03/28 00:14:37;;;;;;;17.13;9.93;;;8.60;99.90;;;;;;5094651;28;20203;-54
2022/03/28 00:17:03;;;;;;;17.10;9.68;;;8.60;99.90;;;;;;5094613;28;20178;-54
2022/03/28 00:19:28;;;;;;;15.73;10.25;;;8.50;99.90;;;;;;5094374;28;20638;-55
2022/03/28 00:21:56;;;;;;;19.92;10.65;;;8.40;99.90;;;;;;5094459;28;20225;-52
2022/03/28 00:24:22;;;;;;;17.50;9.43;;;8.40;99.90;;;;;;5076589;28;20204;-53
2022/03/28 00:26:48;;;;;;;13.93;9.80;;;8.40;99.90;;;;;;5094304;28;20182;-54
2022/03/28 00:29:13;;;;;;;16.67;10.38;;;8.40;99.90;;;;;;5094314;28;20173;-55
2022/03/28 00:31:39;;;;;;;14.95;9.93;;;8.50;99.90;;;;;;5094383;28;20256;-55
2022/03/28 00:34:06;;;;;;;14.75;9.55;;;8.40;99.90;;;;;;5094311;28;20166;-52
2022/03/28 00:36:32;;;;;;;14.25;9.52;;;8.40;99.90;;;;;;5094191;28;20247;-56
2022/03/28 00:38:57;;;;;;;19.40;10.30;;;8.50;99.90;;;;;;5094245;28;20169;-56
2022/03/28 00:41:23;;;;;;;15.57;9.93;;;8.60;99.90;;;;;;5093937;28;20573;-54
2022/03/28 00:43:57;;;;;;;15.40;9.30;;;8.60;99.90;;;;;;5094168;28;20209;-56
2022/03/28 00:46:23;;;;;;;18.20;10.10;;;8.60;99.90;;;;;;5094124;28;20177;-55
2022/03/28 00:48:49;;;;;;;16.15;9.57;;;8.70;99.90;;;;;;5093962;28;20173;-56
2022/03/28 00:51:16;;;;;;;18.67;9.65;;;8.70;99.90;;;;;;5093889;28;20182;-57
2022/03/28 00:53:42;;;;;;;14.65;9.48;;;8.70;99.90;;;;;;5093848;28;20182;-56
2022/03/28 00:56:08;;;;;;;14.68;9.65;;;8.60;99.90;;;;;;5093744;28;20639;-56
2022/03/28 00:58:34;;;;;;;16.80;9.70;;;8.30;99.90;;;;;;5093975;28;20182;-56
2022/03/28 01:01:01;;;;;;;13.43;8.75;;;8.20;99.90;;;;;;5093729;28;20215;-52
2022/03/28 01:03:26;;;;;;;15.52;9.23;;;8.20;99.90;;;;;;5093679;28;20213;-53
2022/03/28 01:05:52;;;;;;;13.57;9.38;;;8.20;99.90;;;;;;5093683;28;20664;-56
2022/03/28 01:08:18;;;;;;;15.65;10.05;;;8.10;99.90;;;;;;5093385;28;20178;-54
2022/03/28 01:10:47;;;;;;;14.82;9.65;;;8.00;99.90;;;;;;5093207;28;20173;-57
2022/03/28 01:13:14;;;;;;;17.00;10.02;;;8.10;99.90;;;;;;5093624;28;20181;-55
2022/03/28 01:15:39;;;;;;;16.38;10.23;;;8.30;99.90;;;;;;5093735;28;20866;-53
2022/03/28 01:18:05;;;;;;;15.95;9.63;;;8.20;99.90;;;;;;5093598;28;20173;-54
2022/03/28 01:20:32;;;;;;;17.83;9.30;;;8.10;99.90;;;;;;5093705;28;20174;-55
2022/03/28 01:22:58;;;;;;;17.60;10.07;;;8.20;99.90;;;;;;5093587;28;20609;-55
2022/03/28 01:25:26;;;;;;;15.93;9.05;;;8.10;99.90;;;;;;5093276;28;20181;-56
2022/03/28 01:27:53;;;;;;;18.45;9.90;;;8.10;99.90;;;;;;5093476;28;20654;-56
2022/03/28 01:30:20;;;;;;;17.25;10.13;;;8.00;99.90;;;;;;5093427;28;20223;-56
2022/03/28 01:32:48;;;;;;;15.77;9.60;;;8.10;99.90;;;;;;5093407;28;20239;-55
2022/03/28 01:35:24;;;;;;;16.67;9.85;;;8.20;99.90;;;;;;5093260;28;20169;-54
2022/03/28 01:37:49;;;;;;;17.90;10.02;;;8.20;99.90;;;;;;5093269;28;20204;-53
2022/03/28 01:40:15;;;;;;;17.10;9.70;;;8.30;99.90;;;;;;5093402;28;20565;-56
2022/03/28 01:42:40;;;;;;;15.68;9.27;;;8.20;99.90;;;;;;5093466;28;20225;-55
2022/03/28 01:45:07;;;;;;;17.67;9.88;;;8.20;99.90;;;;;;5093133;28;20752;-56
2022/03/28 01:47:32;;;;;;;14.15;9.63;;;8.10;99.90;;;;;;5093306;28;20177;-56
2022/03/28 01:49:58;;;;;;;15.00;9.45;;;7.90;99.90;;;;;;5075059;28;20188;-56
2022/03/28 01:52:23;;;;;;;16.98;9.50;;;7.70;99.90;;;;;;5074862;28;20193;-54
2022/03/28 01:54:49;;;;;;;16.58;9.75;;;7.70;99.90;;;;;;5093242;28;20607;-56
2022/03/28 01:57:15;;;;;;;16.42;9.88;;;7.70;99.90;;;;;;5093205;28;20180;-56
2022/03/28 01:59:40;;;;;;;18.70;10.18;;;7.50;99.90;;;;;;5093170;28;20257;-56
2022/03/28 02:02:06;;;;;;;16.58;10.00;;;7.50;99.90;;;;;;5093022;28;20178;-55
2022/03/28 02:04:32;;;;;;;16.17;10.50;;;7.40;99.90;;;;;;5093023;28;20178;-55
2022/03/28 02:06:58;;;;;;;22.52;11.68;;;7.40;99.90;;;;;;5092826;28;20262;-54
2022/03/28 02:09:23;;;;;;;16.75;10.52;;;7.30;99.90;;;;;;5093191;28;20177;-55
2022/03/28 02:11:49;;;;;;;18.58;11.05;;;7.40;99.90;;;;;;5093384;28;20209;-56
2022/03/28 02:14:15;;;;;;;17.98;11.02;;;7.40;99.90;;;;;;5092940;28;20193;-55
2022/03/28 02:16:40;;;;;;;17.45;11.00;;;7.50;99.90;;;;;;5092944;28;20185;-54
2022/03/28 02:19:06;;;;;;;18.33;10.50;;;7.50;99.90;;;;;;5092871;28;20254;-56
2022/03/28 02:21:31;;;;;;;18.65;10.43;;;7.60;99.90;;;;;;5094276;28;20185;-56
2022/03/28 02:23:59;;;;;;;17.80;10.45;;;7.60;99.90;;;;;;5096697;28;20259;-53
2022/03/28 02:26:25;;;;;;;18.35;10.60;;;7.70;99.90;;;;;;5096728;28;20665;-54
2022/03/28 02:28:51;;;;;;;19.45;11.05;;;7.70;99.90;;;;;;5096852;28;20173;-53
2022/03/28 02:31:16;;;;;;;16.58;10.85;;;7.60;99.90;;;;;;5096960;28;20170;-54
2022/03/28 02:33:44;;;;;;;14.93;9.82;;;7.50;99.90;;;;;;5096818;28;20508;-56
2022/03/28 02:36:10;;;;;;;16.80;10.02;;;7.50;99.90;;;;;;5096343;28;20628;-50
2022/03/28 02:38:35;;;;;;;18.40;10.60;;;7.50;99.90;;;;;;5061774;28;20265;-55
2022/03/28 02:41:02;;;;;;;14.73;10.15;;;7.30;99.90;;;;;;5096555;28;20683;-55
2022/03/28 02:43:27;;;;;;;15.43;10.27;;;7.10;99.90;;;;;;5096324;28;20210;-55
2022/03/28 02:45:53;;;;;;;15.90;10.20;;;6.90;99.90;;;;;;5096523;28;20715;-55
2022/03/28 02:48:19;;;;;;;20.38;10.73;;;6.90;99.90;;;;;;5096343;28;20615;-55
2022/03/28 02:50:45;;;;;;;20.55;11.18;;;7.20;99.90;;;;;;5096035;28;20185;-54
2022/03/28 02:53:11;;;;;;;18.52;10.70;;;7.30;99.90;;;;;;5096378;28;20206;-51
2022/03/28 02:55:38;;;;;;;19.13;11.27;;;7.40;99.90;;;;;;5096276;28;20201;-55
2022/03/28 02:58:05;;;;;;;21.45;11.50;;;7.40;99.90;;;;;;5096106;28;20273;-55
2022/03/28 03:00:30;;;;;;;22.27;11.50;;;7.40;99.90;;;;;;5096090;28;20174;-55
2022/03/28 03:02:57;;;;;;;19.10;11.63;;;7.40;99.90;;;;;;5095920;28;20201;-54
2022/03/28 03:05:23;;;;;;;18.85;11.40;;;7.30;99.90;;;;;;5095808;28;20228;-54
2022/03/28 03:07:49;;;;;;;16.08;10.55;;;7.30;99.90;;;;;;5096214;28;20202;-55
2022/03/28 03:10:15;;;;;;;16.40;10.43;;;7.30;99.90;;;;;;5077802;28;20185;-54
2022/03/28 03:12:41;;;;;;;20.60;11.07;;;7.30;99.90;;;;;;5095774;28;20174;-55
2022/03/28 03:15:07;;;;;;;18.55;11.77;;;7.40;99.90;;;;;;5095786;28;20255;-57
2022/03/28 03:17:33;;;;;;;17.40;10.10;;;7.30;99.90;;;;;;5095601;28;20201;-56
2022/03/28 03:19:58;;;;;;;17.63;10.43;;;7.10;99.90;;;;;;5095882;28;20209;-52
2022/03/28 03:22:24;;;;;;;18.45;10.90;;;7.10;99.90;;;;;;5077496;28;20258;-56
2022/03/28 03:24:50;;;;;;;17.83;10.88;;;7.10;99.90;;;;;;5095698;28;20223;-55
2022/03/28 03:27:16;;;;;;;21.20;12.35;;;7.10;99.90;;;;;;5095738;28;20729;-54
2022/03/28 03:29:41;;;;;;;19.92;12.18;;;7.10;99.90;;;;;;5095559;28;20572;-54
2022/03/28 03:32:08;;;;;;;22.80;12.00;;;7.10;99.90;;;;;;5094901;28;20188;-53
2022/03/28 03:34:35;;;;;;;20.83;12.18;;;7.00;99.90;;;;;;5077301;28;20173;-55
2022/03/28 03:37:01;;;;;;;20.50;12.15;;;7.00;99.90;;;;;;5095299;28;20177;-56
2022/03/28 03:39:27;;;;;;;20.23;11.73;;;7.00;99.90;;;;;;5095478;28;20654;-55
2022/03/28 03:41:53;;;;;;;21.40;12.38;;;7.10;99.90;;;;;;5095327;28;20255;-55
2022/03/28 03:44:19;;;;;;;26.70;12.60;;;6.90;99.90;;;;;;5095109;28;20204;-54
2022/03/28 03:46:45;;;;;;;20.95;11.43;;;7.00;99.90;;;;;;5076959;28;20177;-56
2022/03/28 03:49:12;;;;;;;19.52;12.00;;;7.00;99.90;;;;;;5076958;28;20265;-56
2022/03/28 03:51:38;;;;;;;18.63;11.48;;;7.10;99.90;;;;;;5095218;28;20184;-54
2022/03/28 03:54:04;;;;;;;23.08;11.65;;;7.10;99.90;;;;;;5095102;28;20185;-53
2022/03/28 03:56:29;;;;;;;22.30;11.98;;;7.20;99.90;;;;;;5095022;28;20176;-54
2022/03/28 03:58:56;;;;;;;24.20;12.85;;;7.20;99.90;;;;;;5094915;28;20256;-56
2022/03/28 04:01:22;;;;;;;19.60;11.23;;;7.30;99.90;;;;;;5094737;28;20227;-55
2022/03/28 04:03:48;;;;;;;19.08;11.07;;;7.20;99.90;;;;;;5094904;28;20212;-53
2022/03/28 04:06:14;;;;;;;19.77;10.63;;;7.20;99.90;;;;;;5095007;28;20212;-56
2022/03/28 04:08:40;;;;;;;22.20;10.85;;;7.30;99.90;;;;;;5094763;28;20170;-56
2022/03/28 04:11:07;;;;;;;18.40;10.73;;;7.30;99.90;;;;;;5094787;28;20272;-56
2022/03/28 04:13:34;;;;;;;19.65;10.90;;;7.30;99.90;;;;;;5094662;28;20218;-55
2022/03/28 04:16:00;;;;;;;25.30;11.45;;;7.30;99.90;;;;;;5094574;28;20182;-55
2022/03/28 04:18:27;;;;;;;21.13;10.45;;;7.20;99.90;;;;;;5095161;28;20203;-56
2022/03/28 04:20:53;;;;;;;24.63;10.38;;;7.30;99.90;;;;;;5094617;28;20181;-57
2022/03/28 04:23:19;;;;;;;20.33;10.02;;;7.30;99.90;;;;;;5094488;28;20267;-56
2022/03/28 04:25:45;;;;;;;17.65;9.88;;;7.20;99.90;;;;;;5059874;28;20170;-54
2022/03/28 04:28:11;;;;;;;23.77;10.45;;;7.10;99.90;;;;;;5094193;28;20634;-51
2022/03/28 04:30:37;;;;;;;23.08;11.27;;;7.20;99.90;;;;;;5076073;28;20174;-52
2022/03/28 04:33:03;;;;;;;20.20;11.23;;;7.20;99.90;;;;;;5076385;28;20639;-52
2022/03/28 04:35:29;;;;;;;15.52;11.35;;;7.20;99.90;;;;;;5094438;28;20209;-53
2022/03/28 04:37:55;;;;;;;25.88;11.57;;;7.20;99.90;;;;;;5094388;28;20585;-55
2022/03/28 04:40:21;;;;;;;28.67;12.30;;;7.20;99.90;;;;;;5094517;28;20209;-55
2022/03/28 04:42:48;;;;;;;21.95;11.27;;;7.10;99.90;;;;;;5094103;28;20194;-53
2022/03/28 04:45:14;;;;;;;23.45;10.57;;;7.10;99.90;;;;;;5093210;28;20181;-54
2022/03/28 04:47:40;;;;;;;18.40;10.85;;;7.10;99.90;;;;;;5075761;28;20261;-55
2022/03/28 04:50:08;;;;;;;20.02;10.95;;;7.10;99.90;;;;;;5094080;28;20261;-56
2022/03/28 04:52:34;;;;;;;20.80;11.02;;;7.10;99.90;;;;;;5059167;28;20539;-55
2022/03/28 04:55:00;;;;;;;20.27;10.52;;;7.10;99.90;;;;;;5093947;28;20252;-51
2022/03/28 04:57:26;;;;;;;21.63;11.05;;;7.00;99.90;;;;;;5093724;28;20616;-50
2022/03/28 04:59:51;;;;;;;21.25;11.00;;;7.00;99.90;;;;;;5094006;28;20716;-55
2022/03/28 05:02:17;;;;;;;18.63;10.30;;;6.90;99.90;;;;;;5090286;28;20252;-57
2022/03/28 05:04:43;;;;;;;19.17;9.50;;;6.80;99.90;;;;;;5074383;28;20195;-58
2022/03/28 05:07:09;;;;;;;19.00;10.82;;;6.80;99.90;;;;;;5093045;28;20178;-57
2022/03/28 05:09:35;;;;;;;18.45;10.32;;;6.70;99.90;;;;;;5092221;28;20664;-58
2022/03/28 05:12:01;;;;;;;21.48;10.00;;;6.70;99.90;;;;;;5093158;28;20639;-58
2022/03/28 05:14:26;;;;;;;24.33;10.98;;;6.50;99.90;;;;;;5093236;28;20178;-58
2022/03/28 05:16:53;;;;;;;26.17;11.02;;;6.50;99.90;;;;;;5093259;28;20664;-58
2022/03/28 05:19:19;;;;;;;27.95;10.18;;;6.50;99.90;;;;;;5093190;28;20199;-57
2022/03/28 05:21:44;;;;;;;28.00;10.93;;;6.40;99.90;;;;;;5093158;28;20196;-57
2022/03/28 05:24:10;;;;;;;19.63;9.98;;;6.40;99.90;;;;;;5092897;28;20209;-57
2022/03/28 05:26:35;;;;;;;24.30;11.15;;;6.40;99.90;;;;;;5073690;28;20178;-58
2022/03/28 05:29:01;;;;;;;23.83;10.43;;;6.40;99.90;;;;;;5093319;28;20174;-58
2022/03/28 05:31:27;;;;;;;22.33;10.70;;;6.50;99.90;;;;;;5093538;28;20168;-57
2022/03/28 05:33:53;;;;;;;23.35;11.63;;;6.50;99.90;;;;;;5075569;28;20181;-58
2022/03/28 05:36:19;;;;;;;19.02;10.70;;;6.50;99.90;;;;;;5093461;28;20174;-58
2022/03/28 05:38:45;;;;;;;18.38;10.25;;;6.40;99.90;;;;;;5093316;28;20193;-57
2022/03/28 05:41:11;;;;;;;22.08;10.07;;;6.30;99.90;;;;;;5075002;28;20273;-58
2022/03/28 05:43:38;;;;;;;21.52;10.82;;;6.30;99.90;;;;;;5093075;28;20602;-58
2022/03/28 05:46:05;;;;;;;22.85;10.32;;;6.10;99.90;;;;;;5093294;28;20174;-58
2022/03/28 05:48:31;;;;;;;18.60;11.15;;;6.00;99.90;;;;;;5092550;28;20178;-58
2022/03/28 05:50:57;;;;;;;22.15;11.75;;;5.90;99.90;;;;;;5041721;28;20184;-57
2022/03/28 05:53:22;;;;;;;20.42;10.00;;;5.90;99.90;;;;;;5093318;28;20192;-58
2022/03/28 05:55:49;;;;;;;19.17;10.88;;;5.90;99.90;;;;;;5095255;28;20545;-59
2022/03/28 05:58:14;;;;;;;19.83;11.25;;;6.00;99.90;;;;;;5097135;28;20173;-59
2022/03/28 06:00:41;;;;;;;22.48;11.07;;;5.90;99.90;;;;;;5097690;28;20188;-58
2022/03/28 06:03:08;;;;;;;24.25;11.05;;;5.90;99.90;;;;;;5097043;28;20208;-58
2022/03/28 06:05:36;;;;;;;21.23;10.93;;;6.10;99.90;;;;;;5097005;28;20190;-58
2022/03/28 06:08:02;;;;;;;20.55;11.63;;;6.10;99.90;;;;;;5097004;28;20178;-58
2022/03/28 06:10:29;;;;;;;24.52;11.63;;;6.10;99.90;;;;;;5096851;28;20184;-58
2022/03/28 06:12:54;;;;;;;19.75;10.38;;;6.20;99.90;;;;;;5097148;28;20213;-58
2022/03/28 06:15:20;;;;;;;25.50;10.50;;;6.30;99.90;;;;;;5096908;28;20235;-58
2022/03/28 06:17:46;;;;;;;21.98;10.88;;;6.30;99.90;;;;;;5096984;28;20507;-58
2022/03/28 06:20:12;;;;;;;18.38;9.95;;;6.30;99.90;;;;;;5096817;28;20268;-58
2022/03/28 06:22:38;;;;;;;21.30;10.13;;;6.40;99.90;;;;;;5096921;28;20296;-57
2022/03/28 06:25:05;;;;;;;27.67;10.57;;;6.50;99.90;;;;;;5096688;28;20530;-58
2022/03/28 06:27:30;;;;;;;28.65;10.73;;;6.50;99.90;;;;;;5096740;28;20641;-57
2022/03/28 06:29:56;;;;;;;18.15;10.23;;;6.60;99.90;;;;;;5096978;28;20208;-58
2022/03/28 06:32:22;;;;;;;21.13;10.82;;;6.70;99.90;;;;;;5096828;28;20257;-58
2022/03/28 06:34:48;;;;;;;25.98;11.05;;;6.70;99.90;;;;;;5096535;28;20728;-58
2022/03/28 06:37:17;;;;;;;24.73;12.20;;;6.80;99.90;;;;;;5096578;28;20169;-58
2022/03/28 06:39:43;;;;;;;27.77;11.60;;;7.00;99.90;;;;;;5096398;28;20173;-58
2022/03/28 06:42:09;;;;;;;18.88;10.30;;;7.00;99.90;;;;;;5096573;28;20169;-57
2022/03/28 06:44:34;;;;;;;19.63;10.60;;;7.30;99.90;;;;;;5096378;28;20725;-57
2022/03/28 06:47:00;;;;;;;23.33;11.27;;;7.50;99.90;;;;;;5096468;28;20174;-58
2022/03/28 06:49:26;;;;;;;23.35;10.88;;;7.60;99.90;;;;;;5096301;28;20651;-57
2022/03/28 06:51:52;;;;;;;21.00;10.93;;;7.80;99.90;;;;;;5096180;28;20174;-58
2022/03/28 06:54:19;;;;;;;19.95;10.40;;;8.00;99.90;;;;;;5096007;28;20170;-58
2022/03/28 06:56:48;;;;;;;20.48;10.43;;;8.00;99.90;;;;;;5096334;28;20693;-58
2022/03/28 06:59:14;;;;;;;20.83;10.40;;;8.10;99.90;;;;;;5078117;28;20170;-58
2022/03/28 07:01:41;;;;;;;17.27;9.85;;;8.20;99.90;;;;;;5096315;28;20260;-58
2022/03/28 07:04:10;;;;;;;20.67;11.10;;;8.50;99.90;;;;;;5095917;28;20216;-57
2022/03/28 07:06:37;;;;;;;18.02;10.77;;;8.70;99.90;;;;;;5094960;28;20170;-58
2022/03/28 07:09:04;;;;;;;19.10;10.75;;;8.80;99.90;;;;;;5095786;28;20268;-58
2022/03/28 07:11:31;;;;;;;21.63;11.55;;;8.90;99.90;;;;;;5077794;28;20196;-58
2022/03/28 07:13:56;;;;;;;22.75;11.32;;;9.00;99.90;;;;;;5095944;28;20202;-57
2022/03/28 07:16:22;;;;;;;20.80;11.55;;;9.20;99.90;;;;;;5095737;28;20198;-58
2022/03/28 07:18:48;;;;;;;23.80;10.68;;;9.30;99.90;;;;;;5096075;28;20191;-57
2022/03/28 07:21:13;;;;;;;25.02;11.45;;;9.40;99.90;;;;;;5095458;28;20520;-56
2022/03/28 07:23:39;;;;;;;25.17;11.57;;;9.60;99.90;;;;;;5095394;28;20208;-57
2022/03/28 07:26:05;;;;;;;23.10;11.93;;;9.80;99.90;;;;;;5095544;28;20298;-57
2022/03/28 07:28:31;;;;;;;21.98;10.27;;;9.80;99.90;;;;;;5095584;28;20201;-57
2022/03/28 07:30:56;;;;;;;28.60;12.20;;;10.10;99.90;;;;;;5095462;28;20185;-57
2022/03/28 07:33:22;;;;;;;27.02;12.32;;;10.30;99.90;;;;;;5095466;28;20181;-57
2022/03/28 07:35:47;;;;;;;24.63;10.85;;;10.30;99.90;;;;;;5095687;28;20638;-57
2022/03/28 07:38:13;;;;;;;25.35;12.38;;;10.40;99.90;;;;;;5077129;28;20178;-57
2022/03/28 07:40:40;;;;;;;23.23;11.95;;;10.60;99.90;;;;;;5095409;28;20180;-57
2022/03/28 07:43:07;;;;;;;26.02;11.85;;;10.70;99.90;;;;;;5095240;28;20204;-57
2022/03/28 07:45:33;;;;;;;25.75;12.77;;;11.00;99.90;;;;;;5095359;28;20166;-57
2022/03/28 07:47:59;;;;;;;23.50;12.25;;;11.00;99.90;;;;;;5095035;28;20170;-57
2022/03/28 07:50:25;;;;;;;22.55;12.25;;;11.20;99.90;;;;;;5095092;28;20528;-57
2022/03/28 07:52:51;;;;;;;21.25;11.80;;;11.30;99.90;;;;;;5094732;28;20185;-58
2022/03/28 07:55:17;;;;;;;23.23;12.60;;;11.50;99.90;;;;;;5094922;28;20526;-58
2022/03/28 07:57:43;;;;;;;25.30;12.88;;;11.50;99.90;;;;;;5095056;28;20219;-57
2022/03/28 08:00:12;;;;;;;21.48;12.55;;;11.70;99.90;;;;;;5094984;28;20582;-58
2022/03/28 08:02:38;;;;;;;21.50;13.00;;;11.80;99.90;;;;;;5094662;28;20595;-58
2022/03/28 08:05:05;;;;;;;24.17;13.27;;;11.80;99.90;;;;;;5094727;28;20174;-59
2022/03/28 08:07:32;;;;;;;22.58;13.75;;;12.00;99.90;;;;;;5076945;28;20630;-57
2022/03/28 09:04:57;;;;;;;23.30;16.02;;;12.70;99.90;;;;;;5089793;27;1280901;-54
2022/03/28 09:07:27;;;;;;;23.73;16.20;;;14.20;99.90;;;;;;5110914;28;20189;-53
2022/03/28 09:10:00;;;;;;;23.60;16.90;;;14.30;99.90;;;;;;5110772;28;20169;-54
2022/03/28 09:12:26;;;;;;;24.15;17.20;;;14.40;99.90;;;;;;5110609;28;20242;-54
2022/03/28 09:14:57;;;;;;;24.80;16.65;;;14.60;99.90;;;;;;5110618;28;20181;-51
2022/03/28 09:17:24;;;;;;;24.52;16.55;;;14.40;99.90;;;;;;5110779;28;20202;-53
2022/03/28 09:19:55;;;;;;;24.02;15.65;;;14.30;99.90;;;;;;5110742;28;20201;-55
2022/03/28 09:22:35;;;;;;;25.48;16.77;;;14.40;99.90;;;;;;5110451;28;20188;-54
2022/03/28 09:25:12;;;;;;;28.90;16.45;;;14.70;99.90;;;;;;5110365;28;20685;-54
2022/03/28 09:27:40;;;;;;;27.88;17.10;;;14.90;99.90;;;;;;5110663;28;20243;-56
2022/03/28 09:30:14;;;;;;;22.83;16.83;;;14.90;99.90;;;;;;5110437;28;20256;-54
2022/03/28 09:32:40;;;;;;;25.17;15.32;;;14.70;99.90;;;;;;5110305;28;20212;-54
2022/03/28 09:35:19;;;;;;;28.33;15.77;;;15.00;99.90;;;;;;5110253;28;20540;-54
2022/03/28 09:37:53;;;;;;;25.02;15.95;;;15.30;99.90;;;;;;5110337;28;20180;-54
2022/03/28 09:40:51;;;;;;;22.70;16.13;;;15.20;99.90;;;;;;5110359;28;20297;-54
2022/03/28 09:43:22;;;;;;;23.05;16.05;;;15.20;99.90;;;;;;5109122;28;20181;-54
2022/03/28 09:45:53;;;;;;;26.83;15.60;;;15.40;99.90;;;;;;5110118;28;20173;-56
2022/03/28 09:48:22;;;;;;;18.83;15.00;;;15.70;99.90;;;;;;5110230;28;20191;-54
2022/03/28 09:50:55;;;;;;;19.58;14.60;;;15.80;99.90;;;;;;5110179;28;20583;-56
2022/03/28 09:53:22;;;;;;;23.23;15.05;;;15.90;99.90;;;;;;5109988;28;20196;-54
2022/03/28 09:55:59;;;;;;;22.75;13.98;;;16.10;99.90;;;;;;5109865;28;20268;-54
2022/03/28 09:58:59;;;;;;;22.10;15.73;;;16.40;99.90;;;;;;5109927;28;20166;-54
2022/03/28 10:01:31;;;;;;;18.85;13.90;;;16.40;99.90;;;;;;5098711;28;20193;-55
2022/03/28 10:04:05;;;;;;;18.83;12.88;;;16.50;99.90;;;;;;5106735;28;20730;-55
2022/03/28 10:06:31;;;;;;;22.45;14.23;;;16.70;99.90;;;;;;5095314;28;20225;-54
2022/03/28 10:08:58;;;;;;;20.17;13.40;;;16.80;99.90;;;;;;5095071;28;20170;-54
2022/03/28 10:11:25;;;;;;;18.23;13.68;;;16.90;99.90;;;;;;5095101;28;20608;-54
2022/03/28 10:13:51;;;;;;;21.50;13.93;;;17.00;99.90;;;;;;5078114;28;20185;-54
2022/03/28 10:16:17;;;;;;;18.95;13.18;;;16.70;99.90;;;;;;5095997;28;20505;-53
2022/03/28 10:18:47;;;;;;;20.83;13.05;;;16.50;99.90;;;;;;5077547;28;20260;-54
2022/03/28 10:21:18;;;;;;;19.80;11.85;;;16.40;99.90;;;;;;5095752;28;20166;-53
2022/03/28 10:23:49;;;;;;;16.85;11.00;;;16.60;99.90;;;;;;5095819;28;20222;-54
2022/03/28 10:26:17;;;;;;;15.80;11.27;;;17.00;99.90;;;;;;5095888;28;20181;-55
2022/03/28 10:29:15;;;;;;;17.00;12.65;;;17.10;99.90;;;;;;5077658;28;20266;-54
2022/03/28 10:31:54;;;;;;;18.80;11.88;;;16.90;99.70;;;;;;5095630;28;20251;-57
2022/03/28 10:34:39;;;;;;;17.05;11.82;;;16.90;99.90;;;;;;5095439;28;20226;-52
2022/03/28 10:37:29;;;;;;;13.98;11.23;;;16.90;99.90;;;;;;5095554;28;20182;-54
2022/03/28 10:40:30;;;;;;;14.13;11.18;;;17.20;99.90;;;;;;5095717;28;20232;-55
2022/03/28 10:43:11;;;;;;;16.05;10.93;;;17.40;99.90;;;;;;5096031;28;20194;-54
2022/03/28 10:45:46;;;;;;;17.98;11.30;;;17.40;99.10;;;;;;5096322;28;20196;-56
2022/03/28 10:48:11;;;;;;;15.82;10.98;;;17.60;99.90;;;;;;5095594;28;20278;-54
2022/03/28 10:50:51;;;;;;;15.68;10.93;;;17.70;98.70;;;;;;5095218;28;20627;-54
2022/03/28 10:53:25;;;;;;;18.70;10.77;;;17.40;97.90;;;;;;5095368;28;20257;-54
2022/03/28 10:55:53;;;;;;;16.27;10.75;;;17.60;99.60;;;;;;5095251;28;20204;-54
2022/03/28 10:58:24;;;;;;;14.77;10.68;;;17.50;97.20;;;;;;5095201;28;20170;-54
2022/03/28 11:01:08;;;;;;;16.98;10.43;;;17.20;98.10;;;;;;5095069;28;20165;-54
2022/03/28 11:03:43;;;;;;;14.63;9.55;;;16.90;98.00;;;;;;5094793;28;20312;-53
2022/03/28 11:06:10;;;;;;;14.70;9.93;;;16.70;97.90;;;;;;5095004;28;20230;-53
2022/03/28 11:08:38;;;;;;;15.40;9.98;;;16.80;99.30;;;;;;5094904;28;20592;-55
2022/03/28 11:11:24;;;;;;;16.15;10.27;;;17.00;99.10;;;;;;5094923;28;20196;-54
2022/03/28 11:13:57;;;;;;;15.30;9.35;;;17.20;98.50;;;;;;5095183;28;20198;-54
2022/03/28 11:16:39;;;;;;;13.77;9.38;;;17.60;99.40;;;;;;5093815;28;20185;-54
2022/03/28 11:19:24;;;;;;;16.08;9.80;;;17.80;97.40;;;;;;5094853;28;20177;-53
2022/03/28 11:22:00;;;;;;;14.50;10.07;;;17.90;97.20;;;;;;5094791;28;20634;-55
2022/03/28 11:24:51;;;;;;;15.35;9.48;;;17.90;96.50;;;;;;5094661;28;20253;-54
2022/03/28 11:27:18;;;;;;;18.30;9.95;;;17.80;97.30;;;;;;5094585;28;20170;-55
2022/03/28 11:29:45;;;;;;;15.93;10.25;;;18.20;98.40;;;;;;5094592;28;20174;-52
2022/03/28 11:32:16;;;;;;;14.55;10.13;;;18.00;95.70;;;;;;5094101;28;20181;-54
2022/03/28 11:34:54;;;;;;;16.23;9.85;;;17.90;97.00;;;;;;5076432;28;20174;-53
2022/03/28 11:37:23;;;;;;;17.45;10.32;;;17.60;95.70;;;;;;5094473;28;20176;-54
2022/03/28 11:40:04;;;;;;;14.52;9.88;;;17.30;97.10;;;;;;5094261;28;20185;-54
2022/03/28 11:42:33;;;;;;;21.23;10.35;;;17.40;94.80;;;;;;5093954;28;20308;-54
2022/03/28 11:45:12;;;;;;;17.05;9.80;;;17.60;96.80;;;;;;5094416;28;20307;-54
2022/03/28 11:47:48;;;;;;;17.35;10.88;;;17.80;96.00;;;;;;5094336;28;20255;-53
2022/03/28 11:50:14;;;;;;;17.65;10.57;;;18.00;98.30;;;;;;5094231;28;20165;-54
2022/03/28 11:52:39;;;;;;;17.42;10.70;;;18.10;98.50;;;;;;5094097;28;20650;-53
2022/03/28 11:55:19;;;;;;;15.40;11.25;;;18.40;98.00;;;;;;5094138;28;20173;-54
2022/03/28 12:00:33;;;;;;;14.90;11.27;;;18.30;95.10;;;;;;5094193;28;20243;-54
2022/03/28 12:02:59;;;;;;;18.33;12.23;;;18.20;95.70;;;;;;5093581;28;20218;-54
2022/03/28 12:05:32;;;;;;;16.00;11.02;;;17.90;94.00;;;;;;5093799;28;20186;-55
2022/03/28 12:08:00;;;;;;;15.45;10.80;;;17.70;94.70;;;;;;5093965;28;20170;-54
2022/03/28 12:10:32;;;;;;;15.85;10.45;;;17.80;97.10;;;;;;5093962;28;20174;-54
2022/03/28 12:13:00;;;;;;;16.58;11.30;;;18.00;97.30;;;;;;5093869;28;20174;-55
2022/03/28 12:15:31;;;;;;;14.85;10.32;;;18.30;97.90;;;;;;5093735;28;20181;-55
2022/03/28 12:18:02;;;;;;;15.13;10.55;;;18.50;97.20;;;;;;5093627;28;20174;-54
2022/03/28 12:20:36;;;;;;;14.25;10.20;;;18.70;97.20;;;;;;5093862;28;20197;-55
2022/03/28 12:23:04;;;;;;;15.75;11.65;;;18.70;96.60;;;;;;5093656;28;20193;-54
2022/03/28 12:25:41;;;;;;;15.68;11.50;;;18.50;95.10;;;;;;5093602;28;20199;-54
2022/03/28 12:28:19;;;;;;;15.45;10.82;;;18.60;95.10;;;;;;5076059;28;20524;-54
2022/03/28 12:30:50;;;;;;;13.85;10.18;;;18.40;94.20;;;;;;5093607;28;20662;-54
2022/03/28 12:33:43;;;;;;;19.65;10.85;;;18.50;96.50;;;;;;5093258;28;20185;-54
2022/03/28 12:36:12;;;;;;;14.73;10.73;;;18.60;96.90;;;;;;5090770;28;20215;-54
2022/03/28 12:38:40;;;;;;;11.75;10.18;;;18.60;95.90;;;;;;5075279;28;20185;-54
2022/03/28 12:41:11;;;;;;;14.07;10.77;;;18.50;95.90;;;;;;5093499;28;20181;-55
2022/03/28 12:43:39;;;;;;;20.23;11.07;;;18.40;94.90;;;;;;5093336;28;20239;-54
2022/03/28 12:46:07;;;;;;;16.60;10.85;;;18.60;96.20;;;;;;5093314;28;20188;-54
2022/03/28 12:48:49;;;;;;;18.52;10.10;;;18.70;95.00;;;;;;5093276;28;20208;-54
2022/03/28 12:51:35;;;;;;;19.33;10.70;;;18.60;95.30;;;;;;5093144;28;20174;-54
2022/03/28 12:54:17;;;;;;;16.25;10.82;;;18.70;95.70;;;;;;5093462;28;20190;-54
2022/03/28 12:56:54;;;;;;;14.65;10.98;;;18.70;96.00;;;;;;5093153;28;20208;-54
2022/03/28 12:59:21;;;;;;;12.27;10.32;;;18.80;94.60;;;;;;5093179;28;20177;-54
2022/03/28 13:01:47;;;;;;;16.80;11.45;;;18.80;95.10;;;;;;5093098;28;20628;-55
2022/03/28 13:04:24;;;;;;;17.02;11.15;;;18.70;93.60;;;;;;5092754;28;20224;-54
2022/03/28 13:06:58;;;;;;;13.80;11.13;;;18.60;94.60;;;;;;5093278;28;20181;-54
2022/03/28 13:09:24;;;;;;;14.43;11.45;;;18.50;95.80;;;;;;5093245;28;20624;-54
2022/03/28 13:11:51;;;;;;;16.63;11.80;;;18.60;94.40;;;;;;5093060;28;20174;-54
2022/03/28 13:14:25;;;;;;;16.35;11.77;;;18.10;93.90;;;;;;5092925;28;20230;-54
2022/03/28 13:17:11;;;;;;;16.48;12.07;;;18.00;95.30;;;;;;5093109;28;20177;-54
2022/03/28 13:19:38;;;;;;;16.55;11.85;;;17.90;95.50;;;;;;5074972;28;20528;-54
2022/03/28 13:22:06;;;;;;;18.40;12.90;;;18.00;96.30;;;;;;5092898;28;20628;-54
2022/03/28 13:24:33;;;;;;;16.73;12.48;;;18.00;96.90;;;;;;5092816;28;20221;-54
2022/03/28 13:29:52;;;;;;;16.17;12.35;;;17.80;96.80;;;;;;5093136;28;20189;-54
2022/03/28 13:32:18;;;;;;;19.50;12.70;;;17.80;96.30;;;;;;5092797;28;20216;-54
2022/03/28 13:34:43;;;;;;;17.20;12.75;;;17.80;96.40;;;;;;5092713;28;20174;-54
2022/03/28 13:37:09;;;;;;;19.48;13.50;;;17.70;96.20;;;;;;5092733;28;20190;-55
2022/03/28 13:39:36;;;;;;;17.75;12.77;;;17.70;96.60;;;;;;5093802;28;20170;-55
2022/03/28 13:42:03;;;;;;;17.70;12.85;;;18.00;97.30;;;;;;5097073;28;20174;-54